createdAt,value
2023-03-04T00:04:04.000Z,995.24
2023-03-04T00:08:58.000Z,995.27
2023-03-04T00:13:52.000Z,995.19
2023-03-04T00:18:46.000Z,995.29
2023-03-04T00:23:40.000Z,995.13
2023-03-04T00:28:34.000Z,995.13
2023-03-04T00:33:28.000Z,995.16
2023-03-04T00:38:22.000Z,995.18
2023-03-04T00:43:14.000Z,995.16
2023-03-04T00:48:08.000Z,995.12
2023-03-04T00:53:02.000Z,995.08
2023-03-04T00:57:56.000Z,995.09
2023-03-04T01:02:49.000Z,995.02
2023-03-04T01:07:43.000Z,995.04
2023-03-04T01:12:37.000Z,994.94
2023-03-04T01:17:30.000Z,994.91
2023-03-04T01:22:22.000Z,994.96
2023-03-04T01:27:16.000Z,994.86
2023-03-04T01:32:10.000Z,994.81
2023-03-04T01:37:03.000Z,994.70
2023-03-04T01:41:57.000Z,994.75
2023-03-04T01:46:51.000Z,994.72
2023-03-04T01:51:44.000Z,994.60
2023-03-04T01:56:38.000Z,994.58
2023-03-04T02:01:31.000Z,994.47
2023-03-04T02:06:25.000Z,994.49
2023-03-04T02:11:19.000Z,994.47
2023-03-04T02:16:13.000Z,994.41
2023-03-04T02:21:07.000Z,994.47
2023-03-04T02:26:00.000Z,994.37
2023-03-04T02:30:54.000Z,994.43
2023-03-04T02:35:47.000Z,994.41
2023-03-04T02:40:41.000Z,994.28
2023-03-04T02:45:34.000Z,994.35
2023-03-04T02:50:29.000Z,994.28
2023-03-04T02:55:23.000Z,994.28
2023-03-04T03:00:16.000Z,994.28
2023-03-04T03:05:10.000Z,994.27
2023-03-04T03:10:03.000Z,994.27
2023-03-04T03:14:57.000Z,994.17
2023-03-04T03:19:51.000Z,994.17
2023-03-04T03:24:43.000Z,994.13
2023-03-04T03:29:37.000Z,994.10
2023-03-04T03:34:32.000Z,994.09
2023-03-04T03:39:25.000Z,993.97
2023-03-04T03:44:19.000Z,994.09
2023-03-04T03:49:13.000Z,994.14
2023-03-04T03:54:07.000Z,994.05
2023-03-04T03:59:00.000Z,994.05
2023-03-04T04:03:52.000Z,994.06
2023-03-04T04:08:44.000Z,994.05
2023-03-04T04:13:39.000Z,994.04
2023-03-04T04:18:32.000Z,993.99
2023-03-04T04:23:26.000Z,993.94
2023-03-04T04:28:20.000Z,993.90
2023-03-04T04:33:13.000Z,993.83
2023-03-04T04:38:07.000Z,993.81
2023-03-04T04:43:00.000Z,993.74
2023-03-04T04:47:54.000Z,993.68
2023-03-04T04:52:47.000Z,993.78
2023-03-04T04:57:41.000Z,993.80
2023-03-04T05:02:35.000Z,993.73
2023-03-04T05:07:29.000Z,993.72
2023-03-04T05:12:23.000Z,993.77
2023-03-04T05:17:17.000Z,993.78
2023-03-04T05:22:10.000Z,993.76
2023-03-04T05:27:03.000Z,993.80
2023-03-04T05:31:56.000Z,993.72
2023-03-04T05:36:49.000Z,993.73
2023-03-04T05:41:43.000Z,993.71
2023-03-04T05:46:37.000Z,993.76
2023-03-04T05:51:31.000Z,993.81
2023-03-04T05:56:24.000Z,993.88
2023-03-04T06:01:18.000Z,993.82
2023-03-04T06:06:11.000Z,993.83
2023-03-04T06:11:05.000Z,993.93
2023-03-04T06:15:58.000Z,994.01
2023-03-04T06:20:52.000Z,994.05
2023-03-04T06:25:46.000Z,994.08
2023-03-04T06:30:40.000Z,994.13
2023-03-04T06:35:33.000Z,994.18
2023-03-04T06:40:27.000Z,994.24
2023-03-04T06:45:21.000Z,994.32
2023-03-04T06:50:12.000Z,994.25
2023-03-04T06:55:06.000Z,994.29
2023-03-04T07:00:00.000Z,994.22
2023-03-04T07:04:54.000Z,994.25
2023-03-04T07:09:47.000Z,994.25
2023-03-04T07:14:42.000Z,994.33
2023-03-04T07:19:35.000Z,994.33
2023-03-04T07:24:29.000Z,994.37
2023-03-04T07:29:24.000Z,994.38
2023-03-04T07:34:18.000Z,994.39
2023-03-04T07:39:11.000Z,994.37
2023-03-04T07:44:04.000Z,994.47
2023-03-04T07:48:56.000Z,994.52
2023-03-04T07:53:49.000Z,994.55
2023-03-04T07:58:43.000Z,994.54
2023-03-04T08:03:37.000Z,994.58
2023-03-04T08:08:29.000Z,994.64
2023-03-04T08:13:23.000Z,994.66
2023-03-04T08:18:16.000Z,994.69
2023-03-04T08:23:11.000Z,994.61
2023-03-04T08:28:04.000Z,994.57
2023-03-04T08:32:58.000Z,994.66
2023-03-04T08:37:52.000Z,994.67
2023-03-04T08:42:45.000Z,994.77
2023-03-04T08:47:39.000Z,994.81
2023-03-04T08:52:33.000Z,994.70
2023-03-04T08:57:28.000Z,994.73
2023-03-04T09:02:22.000Z,994.63
2023-03-04T09:07:15.000Z,994.74
2023-03-04T09:12:07.000Z,994.65
2023-03-04T09:17:03.000Z,994.70
2023-03-04T09:21:55.000Z,994.71
2023-03-04T09:26:49.000Z,994.68
2023-03-04T09:31:44.000Z,994.78
2023-03-04T09:36:37.000Z,994.72
2023-03-04T09:41:32.000Z,994.73
2023-03-04T09:46:27.000Z,994.81
2023-03-04T09:51:20.000Z,994.79
2023-03-04T09:56:14.000Z,994.67
2023-03-04T10:01:08.000Z,994.66
2023-03-04T10:06:01.000Z,994.63
2023-03-04T10:10:55.000Z,994.61
2023-03-04T10:15:49.000Z,994.60
2023-03-04T10:20:44.000Z,994.53
2023-03-04T10:25:38.000Z,994.55
2023-03-04T10:30:32.000Z,994.48
2023-03-04T10:35:26.000Z,994.47
2023-03-04T10:40:20.000Z,994.42
2023-03-04T10:45:13.000Z,994.41
2023-03-04T10:50:07.000Z,994.44
2023-03-04T10:55:01.000Z,994.38
2023-03-04T10:59:52.000Z,994.47
2023-03-04T11:04:47.000Z,994.39
2023-03-04T11:09:41.000Z,994.36
2023-03-04T11:14:36.000Z,994.31
2023-03-04T11:19:31.000Z,994.27
2023-03-04T11:24:25.000Z,994.24
2023-03-04T11:29:20.000Z,994.17
2023-03-04T11:34:14.000Z,994.15
2023-03-04T11:39:08.000Z,994.13
2023-03-04T11:44:02.000Z,994.11
2023-03-04T11:48:56.000Z,993.94
2023-03-04T11:53:49.000Z,993.96
2023-03-04T11:58:43.000Z,993.94
2023-03-04T12:03:37.000Z,993.90
2023-03-04T12:08:32.000Z,993.76
2023-03-04T12:13:26.000Z,993.72
2023-03-04T12:18:20.000Z,993.65
2023-03-04T12:23:14.000Z,993.64
2023-03-04T12:28:08.000Z,993.57
2023-03-04T12:33:02.000Z,993.56
2023-03-04T12:37:56.000Z,993.59
2023-03-04T12:42:50.000Z,993.40
2023-03-04T12:47:44.000Z,993.44
2023-03-04T12:52:37.000Z,993.33
2023-03-04T12:57:31.000Z,993.33
2023-03-04T13:02:26.000Z,993.22
2023-03-04T13:07:20.000Z,993.15
2023-03-04T13:12:12.000Z,993.10
2023-03-04T13:17:06.000Z,993.15
2023-03-04T13:22:00.000Z,993.08
2023-03-04T13:26:54.000Z,993.09
2023-03-04T13:31:48.000Z,993.10
2023-03-04T13:36:42.000Z,993.09
2023-03-04T13:41:35.000Z,993.06
2023-03-04T13:46:28.000Z,993.00
2023-03-04T13:51:22.000Z,992.95
2023-03-04T13:56:16.000Z,992.94
2023-03-04T14:01:10.000Z,992.96
2023-03-04T14:06:04.000Z,992.89
2023-03-04T14:15:50.000Z,992.86
2023-03-04T14:20:44.000Z,992.84
2023-03-04T14:25:38.000Z,992.78
2023-03-04T14:30:32.000Z,992.83
2023-03-04T14:35:26.000Z,992.74
2023-03-04T14:40:20.000Z,992.56
2023-03-04T14:45:14.000Z,992.46
2023-03-04T14:50:08.000Z,992.48
2023-03-04T14:55:03.000Z,992.40
2023-03-04T14:59:56.000Z,992.37
2023-03-04T15:04:50.000Z,992.25
2023-03-04T15:09:44.000Z,992.30
2023-03-04T15:14:38.000Z,992.23
2023-03-04T15:19:32.000Z,992.24
2023-03-04T15:24:27.000Z,992.14
2023-03-04T15:29:21.000Z,992.20
2023-03-04T15:34:15.000Z,992.11
2023-03-04T15:39:09.000Z,992.07
2023-03-04T15:44:02.000Z,992.07
2023-03-04T15:48:56.000Z,992.12
2023-03-04T15:53:50.000Z,992.03
2023-03-04T15:58:44.000Z,992.12
2023-03-04T16:03:38.000Z,992.03
2023-03-04T16:08:31.000Z,992.05
2023-03-04T16:13:25.000Z,992.10
2023-03-04T16:18:19.000Z,992.07
2023-03-04T16:23:13.000Z,992.05
2023-03-04T16:28:07.000Z,992.05
2023-03-04T16:33:01.000Z,992.10
2023-03-04T16:37:55.000Z,992.06
2023-03-04T16:42:49.000Z,992.04
2023-03-04T16:47:43.000Z,991.99
2023-03-04T16:52:36.000Z,992.04
2023-03-04T16:57:33.000Z,992.02
2023-03-04T17:02:24.000Z,992.06
2023-03-04T17:07:18.000Z,991.94
2023-03-04T17:12:12.000Z,991.98
2023-03-04T17:17:03.000Z,991.94
2023-03-04T17:21:56.000Z,991.94
2023-03-04T17:26:49.000Z,991.91
2023-03-04T17:31:43.000Z,991.94
2023-03-04T17:36:37.000Z,991.90
2023-03-04T17:41:31.000Z,991.93
2023-03-04T17:46:25.000Z,991.94
2023-03-04T17:51:19.000Z,991.99
2023-03-04T17:56:13.000Z,991.98
2023-03-04T18:01:07.000Z,992.01
2023-03-04T18:06:01.000Z,991.95
2023-03-04T18:10:55.000Z,991.98
2023-03-04T18:15:47.000Z,991.99
2023-03-04T18:20:41.000Z,992.01
2023-03-04T18:25:35.000Z,992.02
2023-03-04T18:30:29.000Z,991.91
2023-03-04T18:35:23.000Z,991.88
2023-03-04T18:40:17.000Z,991.92
2023-03-04T18:45:11.000Z,991.92
2023-03-04T18:50:04.000Z,991.90
2023-03-04T18:54:58.000Z,991.92
2023-03-04T18:59:52.000Z,991.92
2023-03-04T19:04:45.000Z,991.93
2023-03-04T19:09:39.000Z,991.95
2023-03-04T19:14:33.000Z,991.96
2023-03-04T19:19:27.000Z,991.93
2023-03-04T19:24:21.000Z,991.96
2023-03-04T19:29:15.000Z,991.94
2023-03-04T19:34:09.000Z,992.01
2023-03-04T19:39:02.000Z,992.06
2023-03-04T19:43:57.000Z,992.00
2023-03-04T19:48:51.000Z,992.02
2023-03-04T19:53:45.000Z,992.03
2023-03-04T19:58:38.000Z,991.99
2023-03-04T20:03:33.000Z,991.95
2023-03-04T20:08:27.000Z,991.92
2023-03-04T20:13:21.000Z,991.98
2023-03-04T20:18:15.000Z,991.80
2023-03-04T20:23:09.000Z,991.90
2023-03-04T20:28:03.000Z,991.96
2023-03-04T20:32:57.000Z,991.95
2023-03-04T20:37:51.000Z,991.97
2023-03-04T20:42:45.000Z,992.00
2023-03-04T20:47:36.000Z,991.94
2023-03-04T20:52:30.000Z,991.94
2023-03-04T20:57:24.000Z,991.93
2023-03-04T21:02:18.000Z,991.97
2023-03-04T21:07:13.000Z,991.92
2023-03-04T21:12:06.000Z,991.90
2023-03-04T21:17:00.000Z,991.86
2023-03-04T21:21:54.000Z,991.82
2023-03-04T21:26:48.000Z,991.82
2023-03-04T21:31:42.000Z,991.77
2023-03-04T21:36:36.000Z,991.81
2023-03-04T21:41:30.000Z,991.76
2023-03-04T21:46:24.000Z,991.73
2023-03-04T21:51:17.000Z,991.76
2023-03-04T21:56:14.000Z,991.74
2023-03-04T22:01:03.000Z,991.74
2023-03-04T22:05:57.000Z,991.69
2023-03-04T22:10:51.000Z,991.71
2023-03-04T22:15:45.000Z,991.69
2023-03-04T22:20:38.000Z,991.71
2023-03-04T22:25:33.000Z,991.68
2023-03-04T22:30:27.000Z,991.60
2023-03-04T22:35:18.000Z,991.66
2023-03-04T22:40:14.000Z,991.66
2023-03-04T22:45:07.000Z,991.65
2023-03-04T22:50:01.000Z,991.69
2023-03-04T22:54:55.000Z,991.63
2023-03-04T22:59:49.000Z,991.58
2023-03-04T23:04:43.000Z,991.55
2023-03-04T23:09:37.000Z,991.50
2023-03-04T23:14:31.000Z,991.56
2023-03-04T23:19:25.000Z,991.51
2023-03-04T23:24:19.000Z,991.40
2023-03-04T23:29:12.000Z,991.51
2023-03-04T23:34:07.000Z,991.49
2023-03-04T23:39:01.000Z,991.35
2023-03-04T23:43:54.000Z,991.39
2023-03-04T23:48:48.000Z,991.32
2023-03-04T23:53:42.000Z,991.31
2023-03-04T23:58:36.000Z,991.19
